Santa Fe Municipal Airport
KSAF : now visible

Airfield :











YOU CAN JOIN US ON...

 
LOGIN :

Register | Disclaimer

   EN    FR    IT 

 









Legend :    VFR   Marginal VFR   IFR   Intensive IFR   Very Intensive IFR
Visi :
Ceiling :
>= 8 km
>= 3000ft
5 to 8 km
1000 to 3000 ft
1500m to 5 km
500 to 1000 ft
800 to 1500m
200 to 500 ft
< 800m
< 200 ft
Symbols :   Thunderstorms  Fog  Heavy snow  Heavy precipitations  Wind > 20 kt






- Airport Elevation : 6348 ft


KSAF - Santa Fe Municipal

CURRENT METAR :
  • 222253Z 24016G26KT 10SM CLR 35/M05 A3007 RMK AO2 PK WND 24033/2241 SLP058 T03501050

EXPIRED METARs :
  • 222153Z 25014G21KT 10SM CLR 35/M04 A3010 RMK AO2 PK WND 24026/2135 SLP067 T03501039
  • 222053Z 24010G22KT 10SM CLR 33/03 A3013 RMK AO2 SLP081 T03330028 58021

TAF KSAF
Valid from the 23 at 00:00 until the 24 at 00:00 UTC


222331Z 2300/2324 26013G23KT P6SM SCT120
FM230200 31008KT P6SM BKN120
FM230500 01007KT P6SM FEW120 BKN250
FM231800 28010KT P6SM FEW120 BKN180
KZAB FIR / North America



MET'MAP, your aeronautical weather chart ! - Copyright ORBIFLY December 2007 - Disclaimer

ORBIFLY MET'MAP TEAM :

Programming & Development : Alexandra Zaïnal
Concept & original design : Baudouin d'Aumeries
Assistance for programming : Marc-Olivier Méhu
Technical & hardware support : Manuel Goepfert

Contact : metmap@orbifly.com




SOURCES & CREDITS :

   NOAA       Earth
Advisory